sensor_id;sensor_type;location;lat;lon;timestamp;temperature;humidity
79698;SHT31;69168;42.708;23.286;2023-04-15T00:01:47;9.87;58.66
79698;SHT31;69168;42.708;23.286;2023-04-15T00:04:13;9.99;59.94
79698;SHT31;69168;42.708;23.286;2023-04-15T00:06:38;10.03;58.47
79698;SHT31;69168;42.708;23.286;2023-04-15T00:09:04;10.09;58.41
79698;SHT31;69168;42.708;23.286;2023-04-15T00:11:30;10.13;58.20
79698;SHT31;69168;42.708;23.286;2023-04-15T00:13:55;10.12;58.71
79698;SHT31;69168;42.708;23.286;2023-04-15T00:16:21;10.15;59.38
79698;SHT31;69168;42.708;23.286;2023-04-15T00:18:46;10.26;59.40
79698;SHT31;69168;42.708;23.286;2023-04-15T00:21:12;10.26;60.35
79698;SHT31;69168;42.708;23.286;2023-04-15T00:23:37;10.29;59.48
79698;SHT31;69168;42.708;23.286;2023-04-15T00:26:03;10.32;59.44
79698;SHT31;69168;42.708;23.286;2023-04-15T00:28:28;10.42;60.39
79698;SHT31;69168;42.708;23.286;2023-04-15T00:30:55;10.47;59.09
79698;SHT31;69168;42.708;23.286;2023-04-15T00:33:20;10.43;59.14
79698;SHT31;69168;42.708;23.286;2023-04-15T00:35:46;10.52;59.06
79698;SHT31;69168;42.708;23.286;2023-04-15T00:38:11;10.49;60.06
79698;SHT31;69168;42.708;23.286;2023-04-15T00:40:37;10.52;60.44
79698;SHT31;69168;42.708;23.286;2023-04-15T00:43:02;10.59;60.63
79698;SHT31;69168;42.708;23.286;2023-04-15T00:45:28;10.20;62.10
79698;SHT31;69168;42.708;23.286;2023-04-15T00:47:55;10.12;61.97
79698;SHT31;69168;42.708;23.286;2023-04-15T00:50:21;10.08;63.20
79698;SHT31;69168;42.708;23.286;2023-04-15T00:52:47;10.13;63.09
79698;SHT31;69168;42.708;23.286;2023-04-15T00:55:12;10.12;64.91
79698;SHT31;69168;42.708;23.286;2023-04-15T00:57:38;10.18;62.81
79698;SHT31;69168;42.708;23.286;2023-04-15T01:00:05;9.88;64.10
79698;SHT31;69168;42.708;23.286;2023-04-15T01:02:34;9.71;66.31
79698;SHT31;69168;42.708;23.286;2023-04-15T01:05:00;9.82;64.77
79698;SHT31;69168;42.708;23.286;2023-04-15T01:07:26;9.85;65.38
79698;SHT31;69168;42.708;23.286;2023-04-15T01:09:52;9.95;64.85
79698;SHT31;69168;42.708;23.286;2023-04-15T01:12:18;10.05;64.76
79698;SHT31;69168;42.708;23.286;2023-04-15T01:14:44;10.10;63.58
79698;SHT31;69168;42.708;23.286;2023-04-15T01:17:09;10.09;64.34
79698;SHT31;69168;42.708;23.286;2023-04-15T01:19:35;10.03;65.90
79698;SHT31;69168;42.708;23.286;2023-04-15T01:22:02;10.01;64.65
79698;SHT31;69168;42.708;23.286;2023-04-15T01:24:29;10.03;66.32
79698;SHT31;69168;42.708;23.286;2023-04-15T01:26:54;10.02;65.79
79698;SHT31;69168;42.708;23.286;2023-04-15T01:29:20;10.06;65.55
79698;SHT31;69168;42.708;23.286;2023-04-15T01:31:53;10.05;66.40
79698;SHT31;69168;42.708;23.286;2023-04-15T01:34:19;10.12;66.18
79698;SHT31;69168;42.708;23.286;2023-04-15T01:36:45;10.09;66.62
79698;SHT31;69168;42.708;23.286;2023-04-15T01:39:11;9.99;66.94
79698;SHT31;69168;42.708;23.286;2023-04-15T01:41:36;9.69;67.74
79698;SHT31;69168;42.708;23.286;2023-04-15T01:44:02;9.42;68.26
79698;SHT31;69168;42.708;23.286;2023-04-15T01:46:27;9.36;68.22
79698;SHT31;69168;42.708;23.286;2023-04-15T01:48:53;9.46;67.83
79698;SHT31;69168;42.708;23.286;2023-04-15T01:51:18;9.50;67.02
79698;SHT31;69168;42.708;23.286;2023-04-15T01:53:44;9.29;68.00
79698;SHT31;69168;42.708;23.286;2023-04-15T01:56:10;9.22;67.94
79698;SHT31;69168;42.708;23.286;2023-04-15T01:58:36;9.32;67.87
79698;SHT31;69168;42.708;23.286;2023-04-15T02:01:01;9.44;67.93
79698;SHT31;69168;42.708;23.286;2023-04-15T02:03:28;9.53;67.77
79698;SHT31;69168;42.708;23.286;2023-04-15T02:05:53;9.50;67.91
79698;SHT31;69168;42.708;23.286;2023-04-15T02:08:19;9.50;67.91
79698;SHT31;69168;42.708;23.286;2023-04-15T02:10:44;9.51;67.89
79698;SHT31;69168;42.708;23.286;2023-04-15T02:13:10;9.44;67.69
79698;SHT31;69168;42.708;23.286;2023-04-15T02:15:35;9.23;68.78
79698;SHT31;69168;42.708;23.286;2023-04-15T02:18:01;9.20;69.04
79698;SHT31;69168;42.708;23.286;2023-04-15T02:20:27;8.98;68.71
79698;SHT31;69168;42.708;23.286;2023-04-15T02:22:54;8.89;68.67
79698;SHT31;69168;42.708;23.286;2023-04-15T02:25:20;9.02;68.38
79698;SHT31;69168;42.708;23.286;2023-04-15T02:27:46;9.06;68.38
79698;SHT31;69168;42.708;23.286;2023-04-15T02:30:11;9.11;67.96
79698;SHT31;69168;42.708;23.286;2023-04-15T02:32:38;8.95;67.39
79698;SHT31;69168;42.708;23.286;2023-04-15T02:35:05;8.82;68.06
79698;SHT31;69168;42.708;23.286;2023-04-15T02:37:31;8.80;67.86
79698;SHT31;69168;42.708;23.286;2023-04-15T02:39:57;8.67;67.26
79698;SHT31;69168;42.708;23.286;2023-04-15T02:42:22;8.77;67.84
79698;SHT31;69168;42.708;23.286;2023-04-15T02:44:51;8.65;67.53
79698;SHT31;69168;42.708;23.286;2023-04-15T02:47:18;8.71;67.95
79698;SHT31;69168;42.708;23.286;2023-04-15T02:49:43;8.74;67.06
79698;SHT31;69168;42.708;23.286;2023-04-15T02:52:09;8.71;66.67
79698;SHT31;69168;42.708;23.286;2023-04-15T02:54:34;8.72;67.31
79698;SHT31;69168;42.708;23.286;2023-04-15T02:57:00;8.34;66.34
79698;SHT31;69168;42.708;23.286;2023-04-15T02:59:25;7.98;67.20
79698;SHT31;69168;42.708;23.286;2023-04-15T03:01:51;7.82;67.77
79698;SHT31;69168;42.708;23.286;2023-04-15T03:04:16;7.79;67.57
79698;SHT31;69168;42.708;23.286;2023-04-15T03:06:42;7.70;67.78
79698;SHT31;69168;42.708;23.286;2023-04-15T03:09:07;7.74;67.46
79698;SHT31;69168;42.708;23.286;2023-04-15T03:11:33;7.84;67.37
79698;SHT31;69168;42.708;23.286;2023-04-15T03:13:59;8.01;67.37
79698;SHT31;69168;42.708;23.286;2023-04-15T03:16:24;8.09;67.35
79698;SHT31;69168;42.708;23.286;2023-04-15T03:18:50;7.98;67.19
79698;SHT31;69168;42.708;23.286;2023-04-15T03:21:16;8.10;66.40
79698;SHT31;69168;42.708;23.286;2023-04-15T03:23:41;8.06;66.72
79698;SHT31;69168;42.708;23.286;2023-04-15T03:26:06;7.78;67.21
79698;SHT31;69168;42.708;23.286;2023-04-15T03:28:32;7.54;67.67
79698;SHT31;69168;42.708;23.286;2023-04-15T03:30:58;7.39;68.08
79698;SHT31;69168;42.708;23.286;2023-04-15T03:33:24;7.34;68.47
79698;SHT31;69168;42.708;23.286;2023-04-15T03:35:50;7.36;68.40
79698;SHT31;69168;42.708;23.286;2023-04-15T03:38:16;7.26;69.14
79698;SHT31;69168;42.708;23.286;2023-04-15T03:40:42;7.22;69.55
79698;SHT31;69168;42.708;23.286;2023-04-15T03:43:07;7.37;68.71
79698;SHT31;69168;42.708;23.286;2023-04-15T03:45:32;7.29;68.51
79698;SHT31;69168;42.708;23.286;2023-04-15T03:47:58;7.24;68.34
79698;SHT31;69168;42.708;23.286;2023-04-15T03:50:23;7.06;68.47
79698;SHT31;69168;42.708;23.286;2023-04-15T03:52:49;6.81;68.95
79698;SHT31;69168;42.708;23.286;2023-04-15T03:55:33;7.04;69.01
79698;SHT31;69168;42.708;23.286;2023-04-15T03:57:58;7.23;68.28
79698;SHT31;69168;42.708;23.286;2023-04-15T04:00:24;7.36;67.94
79698;SHT31;69168;42.708;23.286;2023-04-15T04:02:49;7.32;67.59
79698;SHT31;69168;42.708;23.286;2023-04-15T04:05:15;7.24;67.85
79698;SHT31;69168;42.708;23.286;2023-04-15T04:07:40;7.43;67.54
79698;SHT31;69168;42.708;23.286;2023-04-15T04:10:06;7.39;67.29
79698;SHT31;69168;42.708;23.286;2023-04-15T04:12:32;7.50;66.84
79698;SHT31;69168;42.708;23.286;2023-04-15T04:14:58;7.59;67.05
79698;SHT31;69168;42.708;23.286;2023-04-15T04:17:23;7.53;67.16
79698;SHT31;69168;42.708;23.286;2023-04-15T04:19:48;7.51;67.60
79698;SHT31;69168;42.708;23.286;2023-04-15T04:22:14;7.29;68.46
79698;SHT31;69168;42.708;23.286;2023-04-15T04:24:39;7.34;68.56
79698;SHT31;69168;42.708;23.286;2023-04-15T04:27:05;7.32;68.48
79698;SHT31;69168;42.708;23.286;2023-04-15T04:29:30;7.23;68.87
79698;SHT31;69168;42.708;23.286;2023-04-15T04:31:56;7.20;69.25
79698;SHT31;69168;42.708;23.286;2023-04-15T04:34:21;7.27;68.84
79698;SHT31;69168;42.708;23.286;2023-04-15T04:36:47;7.47;68.31
79698;SHT31;69168;42.708;23.286;2023-04-15T04:39:12;7.44;68.41
79698;SHT31;69168;42.708;23.286;2023-04-15T04:41:37;7.29;69.11
79698;SHT31;69168;42.708;23.286;2023-04-15T04:44:03;7.24;69.29
79698;SHT31;69168;42.708;23.286;2023-04-15T04:46:28;7.47;68.62
79698;SHT31;69168;42.708;23.286;2023-04-15T04:48:54;7.60;68.81
79698;SHT31;69168;42.708;23.286;2023-04-15T04:51:19;7.64;68.42
79698;SHT31;69168;42.708;23.286;2023-04-15T04:53:45;7.61;68.77
79698;SHT31;69168;42.708;23.286;2023-04-15T04:56:10;7.71;68.25
79698;SHT31;69168;42.708;23.286;2023-04-15T04:58:36;7.82;67.88
79698;SHT31;69168;42.708;23.286;2023-04-15T05:01:02;7.94;67.90
79698;SHT31;69168;42.708;23.286;2023-04-15T05:03:28;8.08;67.57
79698;SHT31;69168;42.708;23.286;2023-04-15T05:05:53;8.10;67.40
79698;SHT31;69168;42.708;23.286;2023-04-15T05:08:19;8.21;67.22
79698;SHT31;69168;42.708;23.286;2023-04-15T05:10:45;8.25;66.92
79698;SHT31;69168;42.708;23.286;2023-04-15T05:13:10;8.34;66.56
79698;SHT31;69168;42.708;23.286;2023-04-15T05:15:36;8.32;66.60
79698;SHT31;69168;42.708;23.286;2023-04-15T05:18:03;8.40;65.85
79698;SHT31;69168;42.708;23.286;2023-04-15T05:20:29;8.43;65.53
79698;SHT31;69168;42.708;23.286;2023-04-15T05:22:54;8.46;64.81
79698;SHT31;69168;42.708;23.286;2023-04-15T05:25:20;8.47;65.27
79698;SHT31;69168;42.708;23.286;2023-04-15T05:27:45;8.57;65.37
79698;SHT31;69168;42.708;23.286;2023-04-15T05:30:11;8.75;63.59
79698;SHT31;69168;42.708;23.286;2023-04-15T05:32:37;8.72;63.90
79698;SHT31;69168;42.708;23.286;2023-04-15T05:35:02;8.78;63.99
79698;SHT31;69168;42.708;23.286;2023-04-15T05:37:28;8.65;64.67
79698;SHT31;69168;42.708;23.286;2023-04-15T05:39:53;8.77;64.45
79698;SHT31;69168;42.708;23.286;2023-04-15T05:42:19;8.80;64.39
79698;SHT31;69168;42.708;23.286;2023-04-15T05:44:45;8.81;63.90
79698;SHT31;69168;42.708;23.286;2023-04-15T05:47:10;8.80;63.25
79698;SHT31;69168;42.708;23.286;2023-04-15T05:49:36;8.84;62.96
79698;SHT31;69168;42.708;23.286;2023-04-15T05:52:02;8.84;63.24
79698;SHT31;69168;42.708;23.286;2023-04-15T05:54:27;8.91;63.03
79698;SHT31;69168;42.708;23.286;2023-04-15T05:56:53;8.97;62.94
79698;SHT31;69168;42.708;23.286;2023-04-15T05:59:18;8.77;63.45
79698;SHT31;69168;42.708;23.286;2023-04-15T06:01:44;8.87;63.16
79698;SHT31;69168;42.708;23.286;2023-04-15T06:04:10;8.92;63.54
79698;SHT31;69168;42.708;23.286;2023-04-15T06:06:36;9.05;63.16
79698;SHT31;69168;42.708;23.286;2023-04-15T06:09:02;9.14;63.03
79698;SHT31;69168;42.708;23.286;2023-04-15T06:11:28;9.27;63.41
79698;SHT31;69168;42.708;23.286;2023-04-15T06:13:53;9.42;63.17
79698;SHT31;69168;42.708;23.286;2023-04-15T06:16:19;9.48;63.30
79698;SHT31;69168;42.708;23.286;2023-04-15T06:18:44;9.50;62.98
79698;SHT31;69168;42.708;23.286;2023-04-15T06:21:10;9.55;62.57
79698;SHT31;69168;42.708;23.286;2023-04-15T06:23:35;9.60;62.19
79698;SHT31;69168;42.708;23.286;2023-04-15T06:26:01;9.64;62.19
79698;SHT31;69168;42.708;23.286;2023-04-15T06:28:27;9.81;62.55
79698;SHT31;69168;42.708;23.286;2023-04-15T06:30:53;9.90;62.08
79698;SHT31;69168;42.708;23.286;2023-04-15T06:33:19;9.85;61.75
79698;SHT31;69168;42.708;23.286;2023-04-15T06:35:45;10.02;61.16
79698;SHT31;69168;42.708;23.286;2023-04-15T06:38:10;10.12;60.84
79698;SHT31;69168;42.708;23.286;2023-04-15T06:40:36;10.20;61.25
79698;SHT31;69168;42.708;23.286;2023-04-15T06:43:01;10.20;61.21
79698;SHT31;69168;42.708;23.286;2023-04-15T06:45:29;10.22;60.59
79698;SHT31;69168;42.708;23.286;2023-04-15T06:47:55;10.16;60.81
79698;SHT31;69168;42.708;23.286;2023-04-15T06:50:21;10.29;60.18
79698;SHT31;69168;42.708;23.286;2023-04-15T06:52:46;10.32;60.21
79698;SHT31;69168;42.708;23.286;2023-04-15T06:55:12;10.45;59.80
79698;SHT31;69168;42.708;23.286;2023-04-15T06:57:38;10.54;59.37
79698;SHT31;69168;42.708;23.286;2023-04-15T07:00:05;10.75;58.97
79698;SHT31;69168;42.708;23.286;2023-04-15T07:02:31;10.81;59.38
79698;SHT31;69168;42.708;23.286;2023-04-15T07:04:57;10.94;60.33
79698;SHT31;69168;42.708;23.286;2023-04-15T07:07:22;11.04;59.15
79698;SHT31;69168;42.708;23.286;2023-04-15T07:09:47;11.14;58.58
79698;SHT31;69168;42.708;23.286;2023-04-15T07:12:13;11.19;57.89
79698;SHT31;69168;42.708;23.286;2023-04-15T07:14:38;11.37;57.10
79698;SHT31;69168;42.708;23.286;2023-04-15T07:17:04;11.53;57.20
79698;SHT31;69168;42.708;23.286;2023-04-15T07:19:29;11.60;56.61
79698;SHT31;69168;42.708;23.286;2023-04-15T07:21:55;11.73;56.07
79698;SHT31;69168;42.708;23.286;2023-04-15T07:24:20;11.92;54.54
79698;SHT31;69168;42.708;23.286;2023-04-15T07:26:47;12.09;52.69
79698;SHT31;69168;42.708;23.286;2023-04-15T07:29:12;11.71;53.16
79698;SHT31;69168;42.708;23.286;2023-04-15T07:31:39;11.85;53.02
79698;SHT31;69168;42.708;23.286;2023-04-15T07:34:06;11.97;53.66
79698;SHT31;69168;42.708;23.286;2023-04-15T07:36:31;12.04;53.27
79698;SHT31;69168;42.708;23.286;2023-04-15T07:38:56;12.17;52.81
79698;SHT31;69168;42.708;23.286;2023-04-15T07:41:22;12.22;52.67
79698;SHT31;69168;42.708;23.286;2023-04-15T07:43:48;12.29;52.94
79698;SHT31;69168;42.708;23.286;2023-04-15T07:46:14;12.55;50.59
79698;SHT31;69168;42.708;23.286;2023-04-15T07:48:39;12.60;47.25
79698;SHT31;69168;42.708;23.286;2023-04-15T07:51:05;12.66;47.01
79698;SHT31;69168;42.708;23.286;2023-04-15T07:53:30;12.81;46.25
79698;SHT31;69168;42.708;23.286;2023-04-15T07:55:57;12.77;45.80
79698;SHT31;69168;42.708;23.286;2023-04-15T07:58:23;12.85;45.63
79698;SHT31;69168;42.708;23.286;2023-04-15T08:00:48;12.83;44.83
79698;SHT31;69168;42.708;23.286;2023-04-15T08:03:14;12.68;44.74
79698;SHT31;69168;42.708;23.286;2023-04-15T08:05:39;12.68;45.01
79698;SHT31;69168;42.708;23.286;2023-04-15T08:08:05;12.67;45.35
79698;SHT31;69168;42.708;23.286;2023-04-15T08:10:31;12.79;43.55
79698;SHT31;69168;42.708;23.286;2023-04-15T08:12:56;12.87;43.76
79698;SHT31;69168;42.708;23.286;2023-04-15T08:15:22;12.94;43.64
79698;SHT31;69168;42.708;23.286;2023-04-15T08:17:48;13.12;43.69
79698;SHT31;69168;42.708;23.286;2023-04-15T08:20:13;13.26;40.70
79698;SHT31;69168;42.708;23.286;2023-04-15T08:22:39;13.21;39.78
79698;SHT31;69168;42.708;23.286;2023-04-15T08:25:05;13.18;40.14
79698;SHT31;69168;42.708;23.286;2023-04-15T08:27:31;13.25;40.59
79698;SHT31;69168;42.708;23.286;2023-04-15T08:29:56;13.25;40.00
79698;SHT31;69168;42.708;23.286;2023-04-15T08:32:21;13.14;41.13
79698;SHT31;69168;42.708;23.286;2023-04-15T08:34:47;13.11;42.38
79698;SHT31;69168;42.708;23.286;2023-04-15T08:37:13;13.05;43.73
79698;SHT31;69168;42.708;23.286;2023-04-15T08:39:38;13.15;44.64
79698;SHT31;69168;42.708;23.286;2023-04-15T08:42:10;13.16;44.25
79698;SHT31;69168;42.708;23.286;2023-04-15T08:44:36;13.19;43.94
79698;SHT31;69168;42.708;23.286;2023-04-15T08:47:06;13.21;43.21
79698;SHT31;69168;42.708;23.286;2023-04-15T08:49:35;13.23;43.65
79698;SHT31;69168;42.708;23.286;2023-04-15T08:52:03;13.35;43.72
79698;SHT31;69168;42.708;23.286;2023-04-15T08:54:29;13.43;43.90
79698;SHT31;69168;42.708;23.286;2023-04-15T08:56:57;13.63;42.70
79698;SHT31;69168;42.708;23.286;2023-04-15T08:59:23;13.60;42.69
79698;SHT31;69168;42.708;23.286;2023-04-15T09:01:49;13.50;41.97
79698;SHT31;69168;42.708;23.286;2023-04-15T09:04:17;13.52;41.43
79698;SHT31;69168;42.708;23.286;2023-04-15T09:06:42;13.50;41.07
79698;SHT31;69168;42.708;23.286;2023-04-15T09:09:08;13.63;40.67
79698;SHT31;69168;42.708;23.286;2023-04-15T09:11:34;13.53;41.33
79698;SHT31;69168;42.708;23.286;2023-04-15T09:14:02;13.77;42.20
79698;SHT31;69168;42.708;23.286;2023-04-15T09:16:28;13.85;41.36
79698;SHT31;69168;42.708;23.286;2023-04-15T09:18:54;13.98;40.69
79698;SHT31;69168;42.708;23.286;2023-04-15T09:21:20;13.88;40.61
79698;SHT31;69168;42.708;23.286;2023-04-15T09:23:57;13.98;39.42
79698;SHT31;69168;42.708;23.286;2023-04-15T09:26:33;14.08;39.29
79698;SHT31;69168;42.708;23.286;2023-04-15T09:29:03;14.26;39.32
79698;SHT31;69168;42.708;23.286;2023-04-15T09:31:30;14.28;38.16
79698;SHT31;69168;42.708;23.286;2023-04-15T09:33:55;14.39;38.36
79698;SHT31;69168;42.708;23.286;2023-04-15T09:36:21;14.59;40.08
79698;SHT31;69168;42.708;23.286;2023-04-15T09:38:56;14.83;38.08
79698;SHT31;69168;42.708;23.286;2023-04-15T09:41:22;14.87;35.99
79698;SHT31;69168;42.708;23.286;2023-04-15T09:43:48;14.87;35.70
79698;SHT31;69168;42.708;23.286;2023-04-15T09:46:14;14.98;35.89
79698;SHT31;69168;42.708;23.286;2023-04-15T09:48:39;15.10;35.97
79698;SHT31;69168;42.708;23.286;2023-04-15T09:51:05;14.98;35.16
79698;SHT31;69168;42.708;23.286;2023-04-15T09:53:33;15.10;34.56
79698;SHT31;69168;42.708;23.286;2023-04-15T09:55:59;15.10;33.63
79698;SHT31;69168;42.708;23.286;2023-04-15T10:00:54;15.04;34.00
79698;SHT31;69168;42.708;23.286;2023-04-15T10:03:31;15.15;34.12
79698;SHT31;69168;42.708;23.286;2023-04-15T10:05:59;15.25;33.16
79698;SHT31;69168;42.708;23.286;2023-04-15T10:08:30;15.31;29.87
79698;SHT31;69168;42.708;23.286;2023-04-15T10:10:57;15.39;31.39
79698;SHT31;69168;42.708;23.286;2023-04-15T10:13:24;15.45;30.63
79698;SHT31;69168;42.708;23.286;2023-04-15T10:16:05;15.38;32.36
79698;SHT31;69168;42.708;23.286;2023-04-15T10:18:34;15.49;31.86
79698;SHT31;69168;42.708;23.286;2023-04-15T10:21:00;15.59;31.67
79698;SHT31;69168;42.708;23.286;2023-04-15T10:23:26;15.58;32.29
79698;SHT31;69168;42.708;23.286;2023-04-15T10:25:53;15.70;32.60
79698;SHT31;69168;42.708;23.286;2023-04-15T10:28:19;15.67;32.45
79698;SHT31;69168;42.708;23.286;2023-04-15T10:30:47;15.89;31.62
79698;SHT31;69168;42.708;23.286;2023-04-15T10:33:14;15.79;31.88
79698;SHT31;69168;42.708;23.286;2023-04-15T10:35:41;15.96;32.04
79698;SHT31;69168;42.708;23.286;2023-04-15T10:38:43;16.11;30.57
79698;SHT31;69168;42.708;23.286;2023-04-15T10:41:21;16.01;32.19
79698;SHT31;69168;42.708;23.286;2023-04-15T10:43:51;16.17;32.67
79698;SHT31;69168;42.708;23.286;2023-04-15T10:46:56;16.20;32.77
79698;SHT31;69168;42.708;23.286;2023-04-15T10:49:16;16.28;32.62
79698;SHT31;69168;42.708;23.286;2023-04-15T10:51:44;16.49;33.45
79698;SHT31;69168;42.708;23.286;2023-04-15T10:54:36;16.60;33.30
79698;SHT31;69168;42.708;23.286;2023-04-15T10:59:29;16.69;32.72
79698;SHT31;69168;42.708;23.286;2023-04-15T11:01:59;16.59;32.71
79698;SHT31;69168;42.708;23.286;2023-04-15T11:04:54;16.55;33.06
79698;SHT31;69168;42.708;23.286;2023-04-15T11:07:56;16.65;33.34
79698;SHT31;69168;42.708;23.286;2023-04-15T11:13:02;16.62;33.28
79698;SHT31;69168;42.708;23.286;2023-04-15T11:15:37;16.42;32.67
79698;SHT31;69168;42.708;23.286;2023-04-15T11:20:36;16.83;33.33
79698;SHT31;69168;42.708;23.286;2023-04-15T11:23:02;16.77;32.84
79698;SHT31;69168;42.708;23.286;2023-04-15T11:25:29;17.03;32.95
79698;SHT31;69168;42.708;23.286;2023-04-15T11:27:55;17.11;32.31
79698;SHT31;69168;42.708;23.286;2023-04-15T11:30:26;17.23;31.96
79698;SHT31;69168;42.708;23.286;2023-04-15T11:32:53;17.14;31.39
79698;SHT31;69168;42.708;23.286;2023-04-15T11:35:19;17.00;31.81
79698;SHT31;69168;42.708;23.286;2023-04-15T11:37:45;17.03;31.34
79698;SHT31;69168;42.708;23.286;2023-04-15T11:40:11;17.10;31.04
79698;SHT31;69168;42.708;23.286;2023-04-15T11:42:38;17.36;30.69
79698;SHT31;69168;42.708;23.286;2023-04-15T11:45:12;17.48;29.91
79698;SHT31;69168;42.708;23.286;2023-04-15T11:47:38;17.70;29.29
79698;SHT31;69168;42.708;23.286;2023-04-15T11:50:20;18.07;29.68
79698;SHT31;69168;42.708;23.286;2023-04-15T11:52:59;18.17;28.38
79698;SHT31;69168;42.708;23.286;2023-04-15T11:55:25;18.35;28.79
79698;SHT31;69168;42.708;23.286;2023-04-15T12:00:37;17.97;28.80
79698;SHT31;69168;42.708;23.286;2023-04-15T12:03:15;18.15;27.24
79698;SHT31;69168;42.708;23.286;2023-04-15T12:06:19;18.07;27.65
79698;SHT31;69168;42.708;23.286;2023-04-15T12:13:53;18.38;28.27
79698;SHT31;69168;42.708;23.286;2023-04-15T12:16:20;18.07;27.99
79698;SHT31;69168;42.708;23.286;2023-04-15T12:18:46;18.11;28.15
79698;SHT31;69168;42.708;23.286;2023-04-15T12:21:12;18.18;27.83
79698;SHT31;69168;42.708;23.286;2023-04-15T12:23:46;18.06;27.70
79698;SHT31;69168;42.708;23.286;2023-04-15T12:26:12;17.97;27.28
79698;SHT31;69168;42.708;23.286;2023-04-15T12:28:39;17.96;27.49
79698;SHT31;69168;42.708;23.286;2023-04-15T12:31:07;18.04;27.82
79698;SHT31;69168;42.708;23.286;2023-04-15T12:33:34;18.03;27.91
79698;SHT31;69168;42.708;23.286;2023-04-15T12:35:59;18.11;27.37
79698;SHT31;69168;42.708;23.286;2023-04-15T12:38:25;18.14;27.47
79698;SHT31;69168;42.708;23.286;2023-04-15T12:40:53;18.24;28.45
79698;SHT31;69168;42.708;23.286;2023-04-15T12:43:19;18.45;27.88
79698;SHT31;69168;42.708;23.286;2023-04-15T12:45:44;18.65;27.60
79698;SHT31;69168;42.708;23.286;2023-04-15T12:48:10;18.79;27.87
79698;SHT31;69168;42.708;23.286;2023-04-15T12:50:35;18.99;27.85
79698;SHT31;69168;42.708;23.286;2023-04-15T12:53:01;18.82;27.60
79698;SHT31;69168;42.708;23.286;2023-04-15T12:55:28;18.93;27.23
79698;SHT31;69168;42.708;23.286;2023-04-15T12:57:55;19.27;26.78
79698;SHT31;69168;42.708;23.286;2023-04-15T13:00:20;19.82;25.75
79698;SHT31;69168;42.708;23.286;2023-04-15T13:02:46;19.96;26.13
79698;SHT31;69168;42.708;23.286;2023-04-15T13:05:12;20.06;25.72
79698;SHT31;69168;42.708;23.286;2023-04-15T13:07:39;19.72;26.24
79698;SHT31;69168;42.708;23.286;2023-04-15T13:10:05;19.51;26.23
79698;SHT31;69168;42.708;23.286;2023-04-15T13:12:30;19.51;26.60
79698;SHT31;69168;42.708;23.286;2023-04-15T13:14:57;18.99;27.10
79698;SHT31;69168;42.708;23.286;2023-04-15T13:17:22;19.27;26.95
79698;SHT31;69168;42.708;23.286;2023-04-15T13:19:48;19.65;26.66
79698;SHT31;69168;42.708;23.286;2023-04-15T13:22:13;19.58;26.31
79698;SHT31;69168;42.708;23.286;2023-04-15T13:24:39;19.63;26.07
79698;SHT31;69168;42.708;23.286;2023-04-15T13:27:05;19.69;26.06
79698;SHT31;69168;42.708;23.286;2023-04-15T13:29:32;19.89;25.99
79698;SHT31;69168;42.708;23.286;2023-04-15T13:31:57;19.73;26.04
79698;SHT31;69168;42.708;23.286;2023-04-15T13:34:27;20.07;25.95
79698;SHT31;69168;42.708;23.286;2023-04-15T13:36:52;19.78;26.33
79698;SHT31;69168;42.708;23.286;2023-04-15T13:39:18;20.49;25.47
79698;SHT31;69168;42.708;23.286;2023-04-15T13:41:43;21.14;24.88
79698;SHT31;69168;42.708;23.286;2023-04-15T13:44:09;21.54;24.61
79698;SHT31;69168;42.708;23.286;2023-04-15T13:46:36;21.11;24.45
79698;SHT31;69168;42.708;23.286;2023-04-15T13:49:03;20.76;24.80
79698;SHT31;69168;42.708;23.286;2023-04-15T13:51:29;20.81;25.14
79698;SHT31;69168;42.708;23.286;2023-04-15T13:53:55;20.43;25.46
79698;SHT31;69168;42.708;23.286;2023-04-15T13:56:22;20.31;25.72
79698;SHT31;69168;42.708;23.286;2023-04-15T13:58:48;20.64;25.21
79698;SHT31;69168;42.708;23.286;2023-04-15T14:01:13;21.09;24.88
79698;SHT31;69168;42.708;23.286;2023-04-15T14:03:38;20.96;24.79
79698;SHT31;69168;42.708;23.286;2023-04-15T14:06:05;20.90;24.95
79698;SHT31;69168;42.708;23.286;2023-04-15T14:08:30;20.85;25.08
79698;SHT31;69168;42.708;23.286;2023-04-15T14:10:56;20.83;25.31
79698;SHT31;69168;42.708;23.286;2023-04-15T14:13:22;21.34;24.90
79698;SHT31;69168;42.708;23.286;2023-04-15T14:15:47;21.89;24.08
79698;SHT31;69168;42.708;23.286;2023-04-15T14:18:13;21.61;23.91
79698;SHT31;69168;42.708;23.286;2023-04-15T14:20:38;21.43;24.38
79698;SHT31;69168;42.708;23.286;2023-04-15T14:23:04;21.23;24.59
79698;SHT31;69168;42.708;23.286;2023-04-15T14:25:29;21.11;24.44
79698;SHT31;69168;42.708;23.286;2023-04-15T14:27:54;21.02;24.88
79698;SHT31;69168;42.708;23.286;2023-04-15T14:30:20;21.02;25.04
79698;SHT31;69168;42.708;23.286;2023-04-15T14:32:45;20.88;24.87
79698;SHT31;69168;42.708;23.286;2023-04-15T14:35:11;20.69;25.37
79698;SHT31;69168;42.708;23.286;2023-04-15T14:37:36;20.58;25.09
79698;SHT31;69168;42.708;23.286;2023-04-15T14:40:02;20.71;25.30
79698;SHT31;69168;42.708;23.286;2023-04-15T14:42:28;20.88;25.09
79698;SHT31;69168;42.708;23.286;2023-04-15T14:44:53;20.93;25.03
79698;SHT31;69168;42.708;23.286;2023-04-15T14:47:18;21.14;24.98
79698;SHT31;69168;42.708;23.286;2023-04-15T14:49:44;20.95;25.05
79698;SHT31;69168;42.708;23.286;2023-04-15T14:52:10;21.03;24.88
79698;SHT31;69168;42.708;23.286;2023-04-15T14:54:35;20.89;24.95
79698;SHT31;69168;42.708;23.286;2023-04-15T14:57:01;20.75;25.10
79698;SHT31;69168;42.708;23.286;2023-04-15T14:59:26;21.14;24.86
79698;SHT31;69168;42.708;23.286;2023-04-15T15:01:52;21.19;24.72
79698;SHT31;69168;42.708;23.286;2023-04-15T15:04:18;20.88;24.66
79698;SHT31;69168;42.708;23.286;2023-04-15T15:06:43;20.55;25.45
79698;SHT31;69168;42.708;23.286;2023-04-15T15:09:12;20.35;25.64
79698;SHT31;69168;42.708;23.286;2023-04-15T15:11:37;20.27;25.85
79698;SHT31;69168;42.708;23.286;2023-04-15T15:14:02;20.56;25.60
79698;SHT31;69168;42.708;23.286;2023-04-15T15:16:28;20.88;25.30
79698;SHT31;69168;42.708;23.286;2023-04-15T15:18:53;20.90;25.14
79698;SHT31;69168;42.708;23.286;2023-04-15T15:21:19;20.89;24.93
79698;SHT31;69168;42.708;23.286;2023-04-15T15:23:45;21.07;24.68
79698;SHT31;69168;42.708;23.286;2023-04-15T15:26:11;21.09;24.87
79698;SHT31;69168;42.708;23.286;2023-04-15T15:28:36;20.78;25.10
79698;SHT31;69168;42.708;23.286;2023-04-15T15:31:02;20.81;25.21
79698;SHT31;69168;42.708;23.286;2023-04-15T15:33:28;21.09;24.89
79698;SHT31;69168;42.708;23.286;2023-04-15T15:35:54;20.68;25.00